createdAt,value
2018-02-03T00:01:45.920Z,19.80
2018-02-03T00:04:14.012Z,20.17
2018-02-03T00:06:41.207Z,19.80
2018-02-03T00:09:08.043Z,21.33
2018-02-03T00:11:34.858Z,21.83
2018-02-03T00:14:01.996Z,20.83
2018-02-03T00:16:28.853Z,21.13
2018-02-03T00:18:55.740Z,23.67
2018-02-03T00:21:22.585Z,22.60
2018-02-03T00:23:49.462Z,22.40
2018-02-03T00:26:16.322Z,21.30
2018-02-03T00:28:43.166Z,21.87
2018-02-03T00:31:10.236Z,22.77
2018-02-03T00:33:37.076Z,23.65
2018-02-03T00:36:04.235Z,24.52
2018-02-03T00:38:31.346Z,24.33
2018-02-03T00:40:58.200Z,26.27
2018-02-03T00:43:25.344Z,25.17
2018-02-03T00:45:52.174Z,25.08
2018-02-03T00:48:19.017Z,24.58
2018-02-03T00:50:46.180Z,23.80
2018-02-03T00:53:13.040Z,22.10
2018-02-03T00:55:39.887Z,17.00
2018-02-03T00:58:06.761Z,13.40
2018-02-03T01:00:33.574Z,13.57
2018-02-03T01:03:00.407Z,12.85
2018-02-03T01:05:27.261Z,12.15
2018-02-03T01:07:54.138Z,12.10
2018-02-03T01:10:21.229Z,12.23
2018-02-03T01:12:48.384Z,22.98
2018-02-03T01:15:15.532Z,10.63
2018-02-03T01:17:42.351Z,8.80
2018-02-03T01:20:09.183Z,7.25
2018-02-03T01:22:36.016Z,7.47
2018-02-03T01:25:02.860Z,5.97
2018-02-03T01:27:29.686Z,5.85
2018-02-03T01:29:56.519Z,5.70
2018-02-03T01:32:23.343Z,5.68
2018-02-03T01:34:50.166Z,5.05
2018-02-03T01:37:17.029Z,5.32
2018-02-03T01:39:43.944Z,5.60
2018-02-03T01:42:10.778Z,5.40
2018-02-03T01:44:37.586Z,5.60
2018-02-03T01:47:04.394Z,5.50
2018-02-03T01:49:31.268Z,6.22
2018-02-03T01:51:58.141Z,7.60
2018-02-03T01:54:24.995Z,7.80
2018-02-03T01:56:51.798Z,7.65
2018-02-03T01:59:18.708Z,8.70
2018-02-03T02:01:45.595Z,10.13
2018-02-03T02:04:12.471Z,10.48
2018-02-03T02:06:39.543Z,10.30
2018-02-03T02:09:06.392Z,9.90
2018-02-03T02:11:33.281Z,9.50
2018-02-03T02:14:00.164Z,9.68
2018-02-03T02:16:27.049Z,8.75
2018-02-03T02:18:53.898Z,8.27
2018-02-03T02:21:20.752Z,8.10
2018-02-03T02:23:47.590Z,8.90
2018-02-03T02:26:14.432Z,9.02
2018-02-03T02:28:41.647Z,9.60
2018-02-03T02:31:08.488Z,8.60
2018-02-03T02:33:35.645Z,9.13
2018-02-03T02:36:02.499Z,8.90
2018-02-03T02:38:29.314Z,8.30
2018-02-03T02:40:56.155Z,7.50
2018-02-03T02:43:22.991Z,6.70
2018-02-03T02:45:49.848Z,7.00
2018-02-03T02:48:16.696Z,6.78
2018-02-03T02:50:43.842Z,6.50
2018-02-03T02:53:10.733Z,6.43
2018-02-03T02:55:37.574Z,6.50
2018-02-03T02:58:04.687Z,6.55
2018-02-03T03:00:31.526Z,7.10
2018-02-03T03:02:58.391Z,7.30
2018-02-03T03:05:25.525Z,7.10
2018-02-03T03:07:52.404Z,7.00
2018-02-03T03:10:19.233Z,6.50
2018-02-03T03:12:46.140Z,6.65
2018-02-03T03:15:13.303Z,5.65
2018-02-03T03:17:40.199Z,6.43
2018-02-03T03:20:07.004Z,5.90
2018-02-03T03:22:34.141Z,6.00
2018-02-03T03:25:01.063Z,6.37
2018-02-03T03:27:27.907Z,6.23
2018-02-03T03:29:54.786Z,6.40
2018-02-03T03:32:21.605Z,6.00
2018-02-03T03:34:48.763Z,6.18
2018-02-03T03:37:15.615Z,5.60
2018-02-03T03:39:42.426Z,5.60
2018-02-03T03:42:09.269Z,5.57
2018-02-03T03:44:36.342Z,4.60
2018-02-03T03:47:03.496Z,4.60
2018-02-03T03:49:30.310Z,4.35
2018-02-03T03:51:57.159Z,4.35
2018-02-03T03:54:24.332Z,3.50
2018-02-03T03:56:51.383Z,3.55
2018-02-03T03:59:18.252Z,3.50
2018-02-03T04:01:45.062Z,3.47
2018-02-03T04:04:11.867Z,3.47
2018-02-03T04:06:38.690Z,3.30
2018-02-03T04:09:05.513Z,3.80
2018-02-03T04:11:32.346Z,3.70
2018-02-03T04:13:59.203Z,3.87
2018-02-03T04:16:26.075Z,3.87
2018-02-03T04:18:52.897Z,4.07
2018-02-03T04:21:19.756Z,4.60
2018-02-03T04:23:46.598Z,4.97
2018-02-03T04:26:13.443Z,4.60
2018-02-03T04:28:40.274Z,4.20
2018-02-03T04:31:07.145Z,4.97
2018-02-03T04:33:34.004Z,4.30
2018-02-03T04:36:00.879Z,4.07
2018-02-03T04:38:27.694Z,4.47
2018-02-03T04:40:54.574Z,4.35
2018-02-03T04:43:21.434Z,3.78
2018-02-03T04:45:48.250Z,3.92
2018-02-03T04:48:15.089Z,4.12
2018-02-03T04:50:42.235Z,3.87
2018-02-03T04:53:09.058Z,4.20
2018-02-03T04:55:35.933Z,4.00
2018-02-03T04:58:02.770Z,4.03
2018-02-03T05:00:29.620Z,4.40
2018-02-03T05:02:56.450Z,4.20
2018-02-03T05:05:23.324Z,4.35
2018-02-03T05:07:50.146Z,4.60
2018-02-03T05:10:17.027Z,5.00
2018-02-03T05:12:43.879Z,5.47
2018-02-03T05:15:10.743Z,5.60
2018-02-03T05:17:37.579Z,5.30
2018-02-03T05:20:04.394Z,5.60
2018-02-03T05:22:31.243Z,5.90
2018-02-03T05:24:58.103Z,5.47
2018-02-03T05:27:24.979Z,5.72
2018-02-03T05:29:51.832Z,5.20
2018-02-03T05:32:18.682Z,5.03
2018-02-03T05:34:45.544Z,4.78
2018-02-03T05:37:12.397Z,4.87
2018-02-03T05:39:39.442Z,4.90
2018-02-03T05:42:06.316Z,4.70
2018-02-03T05:44:33.167Z,4.37
2018-02-03T05:47:00.080Z,4.40
2018-02-03T05:49:26.932Z,5.20
2018-02-03T05:51:53.795Z,4.57
2018-02-03T05:54:20.635Z,4.80
2018-02-03T05:56:47.715Z,4.65
2018-02-03T05:59:14.551Z,4.60
2018-02-03T06:01:41.429Z,4.60
2018-02-03T06:04:08.304Z,4.20
2018-02-03T06:06:35.126Z,4.40
2018-02-03T06:09:02.345Z,5.00
2018-02-03T06:11:29.186Z,4.53
2018-02-03T06:13:56.032Z,4.00
2018-02-03T06:16:23.180Z,3.65
2018-02-03T06:18:50.006Z,3.80
2018-02-03T06:21:17.088Z,3.22
2018-02-03T06:23:43.914Z,2.90
2018-02-03T06:26:10.755Z,3.40
2018-02-03T06:28:37.602Z,2.80
2018-02-03T06:31:04.414Z,2.92
2018-02-03T06:33:31.238Z,3.37
2018-02-03T06:35:58.106Z,3.10
2018-02-03T06:38:25.280Z,2.80
2018-02-03T06:40:52.180Z,2.70
2018-02-03T06:43:18.999Z,3.20
2018-02-03T06:45:45.856Z,2.80
2018-02-03T06:48:12.699Z,3.00
2018-02-03T06:50:39.560Z,2.80
2018-02-03T06:53:06.427Z,3.10
2018-02-03T06:55:33.312Z,3.00
2018-02-03T06:58:00.197Z,3.17
2018-02-03T07:00:27.052Z,3.08
2018-02-03T07:02:54.220Z,3.35
2018-02-03T07:05:21.372Z,3.10
2018-02-03T07:07:48.226Z,3.50
2018-02-03T07:10:15.046Z,3.00
2018-02-03T07:12:41.868Z,2.80
2018-02-03T07:15:08.706Z,2.90
2018-02-03T07:17:35.563Z,3.30
2018-02-03T07:20:02.421Z,2.33
2018-02-03T07:22:29.584Z,2.67
2018-02-03T07:24:56.407Z,2.33
2018-02-03T07:27:23.248Z,2.30
2018-02-03T07:29:50.420Z,2.55
2018-02-03T07:32:17.223Z,2.40
2018-02-03T07:34:44.099Z,2.40
2018-02-03T07:37:10.949Z,2.70
2018-02-03T07:39:37.792Z,2.70
2018-02-03T07:42:04.635Z,2.75
2018-02-03T07:44:31.438Z,2.75
2018-02-03T07:46:58.523Z,2.80
2018-02-03T07:49:25.372Z,2.80
2018-02-03T07:51:52.289Z,3.20
2018-02-03T07:54:19.145Z,3.00
2018-02-03T07:56:45.981Z,2.85
2018-02-03T07:59:12.964Z,4.00
2018-02-03T08:01:40.079Z,4.00
2018-02-03T08:04:06.924Z,4.40
2018-02-03T08:06:33.758Z,3.40
2018-02-03T08:10:47.740Z,4.70
2018-02-03T08:13:14.600Z,3.00
2018-02-03T08:15:41.428Z,3.67
2018-02-03T08:18:08.238Z,3.40
2018-02-03T08:20:35.058Z,3.17
2018-02-03T08:23:01.866Z,3.50
2018-02-03T08:25:28.690Z,5.35
2018-02-03T08:27:55.548Z,2.80
2018-02-03T08:30:22.460Z,2.70
2018-02-03T08:32:49.312Z,2.58
2018-02-03T08:35:16.166Z,2.20
2018-02-03T08:37:43.106Z,4.00
2018-02-03T08:40:09.945Z,5.30
2018-02-03T08:42:36.816Z,4.18
2018-02-03T08:45:03.641Z,3.15
2018-02-03T08:47:30.498Z,7.45
2018-02-03T08:49:57.369Z,4.37
2018-02-03T08:52:24.215Z,2.70
2018-02-03T08:54:51.030Z,2.50
2018-02-03T08:57:17.838Z,2.20
2018-02-03T08:59:44.696Z,2.20
2018-02-03T09:02:11.525Z,2.40
2018-02-03T09:04:38.416Z,2.40
2018-02-03T09:07:05.222Z,2.80
2018-02-03T09:09:32.054Z,3.00
2018-02-03T09:12:04.723Z,3.60
2018-02-03T09:14:31.554Z,2.80
2018-02-03T09:16:58.404Z,2.80
2018-02-03T09:19:25.230Z,2.60
2018-02-03T09:21:52.075Z,2.80
2018-02-03T09:24:19.179Z,2.50
2018-02-03T09:26:46.030Z,4.30
2018-02-03T09:29:12.854Z,3.17
2018-02-03T09:31:39.700Z,2.75
2018-02-03T09:34:06.552Z,3.30
2018-02-03T09:36:33.416Z,3.40
2018-02-03T09:39:00.292Z,3.20
2018-02-03T09:41:27.140Z,3.40
2018-02-03T09:43:53.950Z,3.15
2018-02-03T09:46:20.826Z,3.50
2018-02-03T09:48:47.661Z,3.75
2018-02-03T09:51:14.508Z,6.32
2018-02-03T09:53:41.375Z,3.90
2018-02-03T09:56:08.186Z,3.58
2018-02-03T09:58:35.056Z,3.30
2018-02-03T10:01:01.866Z,3.60
2018-02-03T10:03:28.686Z,3.40
2018-02-03T10:05:55.547Z,3.50
2018-02-03T10:08:22.358Z,3.60
2018-02-03T10:10:49.210Z,3.40
2018-02-03T10:13:16.019Z,3.20
2018-02-03T10:15:42.894Z,3.50
2018-02-03T10:18:09.703Z,3.70
2018-02-03T10:20:36.548Z,3.60
2018-02-03T10:23:03.387Z,4.53
2018-02-03T10:25:30.236Z,4.60
2018-02-03T10:27:57.066Z,4.70
2018-02-03T10:30:23.901Z,4.70
2018-02-03T10:32:50.755Z,4.95
2018-02-03T10:35:17.794Z,4.20
2018-02-03T10:37:44.608Z,3.90
2018-02-03T10:40:11.718Z,4.80
2018-02-03T10:42:38.526Z,4.80
2018-02-03T10:45:05.383Z,4.90
2018-02-03T10:47:32.198Z,4.78
2018-02-03T10:49:59.060Z,5.90
2018-02-03T10:52:25.895Z,5.10
2018-02-03T10:54:52.735Z,4.70
2018-02-03T10:57:19.603Z,4.80
2018-02-03T10:59:46.407Z,4.50
2018-02-03T11:02:13.287Z,5.00
2018-02-03T11:04:40.465Z,4.72
2018-02-03T11:07:07.613Z,4.85
2018-02-03T11:09:34.446Z,4.55
2018-02-03T11:12:01.250Z,4.70
2018-02-03T11:14:28.151Z,4.50
2018-02-03T11:16:54.992Z,5.12
2018-02-03T11:19:21.832Z,4.97
2018-02-03T11:21:48.666Z,4.60
2018-02-03T11:24:15.718Z,4.65
2018-02-03T11:26:42.565Z,4.65
2018-02-03T11:29:09.404Z,5.15
2018-02-03T11:31:36.243Z,4.70
2018-02-03T11:34:03.099Z,4.70
2018-02-03T11:36:30.245Z,5.10
2018-02-03T11:38:57.063Z,5.72
2018-02-03T11:41:23.934Z,5.95
2018-02-03T11:43:50.770Z,5.07
2018-02-03T11:46:17.625Z,5.30
2018-02-03T11:48:44.438Z,5.30
2018-02-03T11:51:11.303Z,4.97
2018-02-03T11:53:38.132Z,5.40
2018-02-03T11:56:04.966Z,5.20
2018-02-03T11:58:31.824Z,5.40
2018-02-03T12:00:58.670Z,4.78
2018-02-03T12:03:25.477Z,4.20
2018-02-03T12:05:52.319Z,3.72
2018-02-03T12:08:19.164Z,3.90
2018-02-03T12:10:46.044Z,3.87
2018-02-03T12:13:12.866Z,3.50
2018-02-03T12:15:39.720Z,3.72
2018-02-03T12:18:06.539Z,3.60
2018-02-03T12:20:33.728Z,3.85
2018-02-03T12:23:00.875Z,3.65
2018-02-03T12:25:27.690Z,3.85
2018-02-03T12:27:54.548Z,3.85
2018-02-03T12:30:21.359Z,4.20
2018-02-03T12:32:48.228Z,4.00
2018-02-03T12:35:15.071Z,3.62
2018-02-03T12:37:42.140Z,4.30
2018-02-03T12:40:08.978Z,4.90
2018-02-03T12:42:35.823Z,5.18
2018-02-03T12:45:02.981Z,5.60
2018-02-03T12:47:29.856Z,4.93
2018-02-03T12:49:56.687Z,5.00
2018-02-03T12:52:23.510Z,5.25
2018-02-03T12:54:50.362Z,5.70
2018-02-03T12:57:17.280Z,4.80
2018-02-03T12:59:44.137Z,4.78
2018-02-03T13:02:11.000Z,4.40
2018-02-03T13:04:37.874Z,4.90
2018-02-03T13:07:04.971Z,4.60
2018-02-03T13:09:31.798Z,4.50
2018-02-03T13:11:58.614Z,4.40
2018-02-03T13:14:25.448Z,4.60
2018-02-03T13:16:52.288Z,4.20
2018-02-03T13:19:19.118Z,4.30
2018-02-03T13:21:46.015Z,4.10
2018-02-03T13:24:12.861Z,4.40
2018-02-03T13:26:39.690Z,4.07
2018-02-03T13:29:06.540Z,4.40
2018-02-03T13:31:33.384Z,4.20
2018-02-03T13:34:00.210Z,3.87
2018-02-03T13:36:27.026Z,3.80
2018-02-03T13:38:53.849Z,4.37
2018-02-03T13:41:20.691Z,4.10
2018-02-03T13:43:47.607Z,4.50
2018-02-03T13:46:14.410Z,4.40
2018-02-03T13:48:41.226Z,4.30
2018-02-03T13:51:08.072Z,3.87
2018-02-03T13:53:34.895Z,3.60
2018-02-03T13:56:01.715Z,3.70
2018-02-03T13:58:28.569Z,3.78
2018-02-03T14:00:55.378Z,3.62
2018-02-03T14:03:22.177Z,3.70
2018-02-03T14:05:49.015Z,3.80
2018-02-03T14:08:15.868Z,3.50
2018-02-03T14:10:42.736Z,4.40
2018-02-03T14:13:09.621Z,3.80
2018-02-03T14:15:36.792Z,3.42
2018-02-03T14:18:03.602Z,3.87
2018-02-03T14:20:30.423Z,4.03
2018-02-03T14:22:57.252Z,4.00
2018-02-03T14:25:24.079Z,4.20
2018-02-03T14:27:50.887Z,3.28
2018-02-03T14:30:17.743Z,3.87
2018-02-03T14:32:44.555Z,3.87
2018-02-03T14:35:11.398Z,3.40
2018-02-03T14:37:38.198Z,3.80
2018-02-03T14:40:05.043Z,3.50
2018-02-03T14:42:31.902Z,3.50
2018-02-03T14:44:58.740Z,3.53
2018-02-03T14:47:25.582Z,3.50
2018-02-03T14:49:52.436Z,3.55
2018-02-03T14:52:19.310Z,3.40
2018-02-03T14:54:46.175Z,3.47
2018-02-03T14:57:12.979Z,3.00
2018-02-03T14:59:39.811Z,4.43
2018-02-03T15:02:06.610Z,3.40
2018-02-03T15:04:33.462Z,3.40
2018-02-03T15:07:00.602Z,3.20
2018-02-03T15:09:27.566Z,3.10
2018-02-03T15:11:54.394Z,3.00
2018-02-03T15:14:21.248Z,3.37
2018-02-03T15:16:48.058Z,3.80
2018-02-03T15:19:14.915Z,2.90
2018-02-03T15:21:41.728Z,3.00
2018-02-03T15:24:08.554Z,3.20
2018-02-03T15:26:35.752Z,2.90
2018-02-03T15:29:02.898Z,2.87
2018-02-03T15:31:29.946Z,4.00
2018-02-03T15:33:56.766Z,4.10
2018-02-03T15:36:23.652Z,3.80
2018-02-03T15:38:50.736Z,3.13
2018-02-03T15:41:17.571Z,2.78
2018-02-03T15:43:44.398Z,3.00
2018-02-03T15:46:11.524Z,2.83
2018-02-03T15:48:38.356Z,6.10
2018-02-03T15:51:05.182Z,3.30
2018-02-03T15:53:32.021Z,2.50
2018-02-03T15:55:58.916Z,2.57
2018-02-03T15:58:25.727Z,2.53
2018-02-03T16:00:52.558Z,2.40
2018-02-03T16:03:19.636Z,4.93
2018-02-03T16:05:46.472Z,2.73
2018-02-03T16:08:13.302Z,2.58
2018-02-03T16:10:40.464Z,2.60
2018-02-03T16:13:07.268Z,2.87
2018-02-03T16:15:34.123Z,2.40
2018-02-03T16:18:00.951Z,2.37
2018-02-03T16:20:27.835Z,2.70
2018-02-03T16:22:54.623Z,2.60
2018-02-03T16:25:21.434Z,2.33
2018-02-03T16:27:48.295Z,2.40
2018-02-03T16:30:15.172Z,2.58
2018-02-03T16:32:42.009Z,2.30
2018-02-03T16:35:08.856Z,2.30
2018-02-03T16:37:35.693Z,2.17
2018-02-03T16:40:02.551Z,1.90
2018-02-03T16:42:29.436Z,2.40
2018-02-03T16:44:56.262Z,2.12
2018-02-03T16:47:23.071Z,2.65
2018-02-03T16:49:49.886Z,2.10
2018-02-03T16:52:16.694Z,1.93
2018-02-03T16:54:43.523Z,1.95
2018-02-03T16:57:10.369Z,1.85
2018-02-03T16:59:37.535Z,1.90
2018-02-03T17:02:04.380Z,1.93
2018-02-03T17:04:31.230Z,2.30
2018-02-03T17:06:58.372Z,1.90
2018-02-03T17:09:25.182Z,2.22
2018-02-03T17:11:52.007Z,2.20
2018-02-03T17:14:19.154Z,2.17
2018-02-03T17:16:45.987Z,2.45
2018-02-03T17:19:12.810Z,2.30
2018-02-03T17:21:39.660Z,2.40
2018-02-03T17:24:06.478Z,2.70
2018-02-03T17:26:33.287Z,2.55
2018-02-03T17:29:00.154Z,3.00
2018-02-03T17:31:26.967Z,2.85
2018-02-03T17:33:53.819Z,2.83
2018-02-03T17:36:20.702Z,2.97
2018-02-03T17:38:47.555Z,2.62
2018-02-03T17:41:14.688Z,3.33
2018-02-03T17:43:41.510Z,3.17
2018-02-03T17:46:08.396Z,3.10
2018-02-03T17:48:35.219Z,3.20
2018-02-03T17:51:02.088Z,2.85
2018-02-03T17:53:28.932Z,3.30
2018-02-03T17:55:55.780Z,3.20
2018-02-03T17:58:22.599Z,3.10
2018-02-03T18:00:49.435Z,3.10
2018-02-03T18:03:16.315Z,3.10
2018-02-03T18:05:43.135Z,3.22
2018-02-03T18:08:09.989Z,2.80
2018-02-03T18:10:37.112Z,2.67
2018-02-03T18:13:03.930Z,2.20
2018-02-03T18:15:30.758Z,2.50
2018-02-03T18:17:57.610Z,2.57
2018-02-03T18:20:24.444Z,2.60
2018-02-03T18:22:51.307Z,2.60
2018-02-03T18:25:18.129Z,2.70
2018-02-03T18:27:44.982Z,2.90
2018-02-03T18:30:11.787Z,3.05
2018-02-03T18:32:38.681Z,2.80
2018-02-03T18:35:05.528Z,3.00
2018-02-03T18:37:32.376Z,3.35
2018-02-03T18:39:59.202Z,3.00
2018-02-03T18:42:26.048Z,3.30
2018-02-03T18:44:52.886Z,3.20
2018-02-03T18:47:19.736Z,3.20
2018-02-03T18:49:46.542Z,3.20
2018-02-03T18:52:13.410Z,2.80
2018-02-03T18:54:40.219Z,2.90
2018-02-03T18:57:07.046Z,3.43
2018-02-03T18:59:34.175Z,3.30
2018-02-03T19:02:01.055Z,3.15
2018-02-03T19:04:27.915Z,3.20
2018-02-03T19:06:55.015Z,3.30
2018-02-03T19:09:21.848Z,3.08
2018-02-03T19:11:49.011Z,3.55
2018-02-03T19:14:15.870Z,3.40
2018-02-03T19:16:42.754Z,3.70
2018-02-03T19:19:09.603Z,3.30
2018-02-03T19:21:36.403Z,3.50
2018-02-03T19:24:03.223Z,3.75
2018-02-03T19:26:30.048Z,3.73
2018-02-03T19:28:56.904Z,3.90
2018-02-03T19:31:23.715Z,4.07
2018-02-03T19:33:50.672Z,4.25
2018-02-03T19:36:17.532Z,4.00
2018-02-03T19:38:44.376Z,4.10
2018-02-03T19:41:11.191Z,4.00
2018-02-03T19:43:38.036Z,4.68
2018-02-03T19:46:04.908Z,4.70
2018-02-03T19:48:31.782Z,5.65
2018-02-03T19:50:58.617Z,10.20
2018-02-03T19:53:25.475Z,5.90
2018-02-03T19:55:52.326Z,5.10
2018-02-03T19:58:19.439Z,5.15
2018-02-03T20:00:46.303Z,5.30
2018-02-03T20:03:13.150Z,11.68
2018-02-03T20:05:40.055Z,41.00
2018-02-03T20:08:06.899Z,30.17
2018-02-03T20:10:33.788Z,14.35
2018-02-03T20:13:00.674Z,29.27
2018-02-03T20:15:27.529Z,7.65
2018-02-03T20:17:54.608Z,5.50
2018-02-03T20:20:21.464Z,5.32
2018-02-03T20:22:48.301Z,5.50
2018-02-03T20:25:15.180Z,5.53
2018-02-03T20:27:42.284Z,5.90
2018-02-03T20:30:09.148Z,5.70
2018-02-03T20:32:35.980Z,6.32
2018-02-03T20:35:02.794Z,6.10
2018-02-03T20:37:29.663Z,6.50
2018-02-03T20:39:56.502Z,6.40
2018-02-03T20:42:23.323Z,6.28
2018-02-03T20:44:50.131Z,6.78
2018-02-03T20:47:17.322Z,7.07
2018-02-03T20:49:44.180Z,7.00
2018-02-03T20:52:10.999Z,12.65
2018-02-03T20:54:37.850Z,20.40
2018-02-03T20:57:04.662Z,19.90
2018-02-03T20:59:31.507Z,11.55
2018-02-03T21:01:58.355Z,8.47
2018-02-03T21:04:25.204Z,7.73
2018-02-03T21:06:52.031Z,7.40
2018-02-03T21:09:18.884Z,7.50
2018-02-03T21:11:45.788Z,7.40
2018-02-03T21:14:12.607Z,6.75
2018-02-03T21:16:39.462Z,7.22
2018-02-03T21:19:06.319Z,7.70
2018-02-03T21:21:33.167Z,7.70
2018-02-03T21:24:00.009Z,7.30
2018-02-03T21:26:26.854Z,7.15
2018-02-03T21:28:53.690Z,8.00
2018-02-03T21:31:20.587Z,8.10
2018-02-03T21:33:47.757Z,8.10
2018-02-03T21:36:14.591Z,8.43
2018-02-03T21:38:41.411Z,8.20
2018-02-03T21:41:08.281Z,8.38
2018-02-03T21:43:35.110Z,8.60
2018-02-03T21:46:01.960Z,7.85
2018-02-03T21:48:28.786Z,8.40
2018-02-03T21:50:55.973Z,8.30
2018-02-03T21:53:22.831Z,8.85
2018-02-03T21:55:49.661Z,10.73
2018-02-03T21:58:16.500Z,9.52
2018-02-03T22:00:43.346Z,8.90
2018-02-03T22:03:10.211Z,14.25
2018-02-03T22:05:37.118Z,12.00
2018-02-03T22:08:03.939Z,11.50
2018-02-03T22:10:30.767Z,10.30
2018-02-03T22:12:57.963Z,8.82
2018-02-03T22:15:24.819Z,10.43
2018-02-03T22:17:51.650Z,9.55
2018-02-03T22:20:18.471Z,9.90
2018-02-03T22:22:45.315Z,8.57
2018-02-03T22:25:12.131Z,9.50
2018-02-03T22:27:39.336Z,8.23
2018-02-03T22:30:06.480Z,9.48
2018-02-03T22:32:33.335Z,11.15
2018-02-03T22:35:00.178Z,10.40
2018-02-03T22:37:27.026Z,13.85
2018-02-03T22:39:53.927Z,8.25
2018-02-03T22:42:20.776Z,7.50
2018-02-03T22:44:47.648Z,7.90
2018-02-03T22:47:14.507Z,7.35
2018-02-03T22:49:41.319Z,7.55
2018-02-03T22:52:08.175Z,8.52
2018-02-03T22:54:35.024Z,7.80
2018-02-03T22:57:01.908Z,8.40
2018-02-03T22:59:28.761Z,9.27
2018-02-03T23:01:55.600Z,9.30
2018-02-03T23:04:22.425Z,9.50
2018-02-03T23:06:49.255Z,8.90
2018-02-03T23:09:16.087Z,9.50
2018-02-03T23:11:42.906Z,9.32
2018-02-03T23:14:09.771Z,9.60
2018-02-03T23:16:36.620Z,9.98
2018-02-03T23:19:03.480Z,9.10
2018-02-03T23:21:30.340Z,9.80
2018-02-03T23:23:57.212Z,10.00
2018-02-03T23:26:24.059Z,10.43
2018-02-03T23:28:50.887Z,10.10
2018-02-03T23:31:17.759Z,10.10
2018-02-03T23:33:44.575Z,10.53
2018-02-03T23:36:11.443Z,10.65
2018-02-03T23:38:38.263Z,10.73
2018-02-03T23:41:05.090Z,32.67
2018-02-03T23:43:31.940Z,22.13
2018-02-03T23:45:58.813Z,17.42
2018-02-03T23:48:25.690Z,18.55
2018-02-03T23:50:52.552Z,17.92
2018-02-03T23:53:19.480Z,17.60
2018-02-03T23:55:46.327Z,14.50
2018-02-03T23:58:13.158Z,12.00
